• Join FlightAware (Why Join?)
  • Login
  • US Flag 
11:57PM EDT


 

Airport Tracker/Info


-or-


 

Live Flight TrackerFlight Track Log ✈ UPS1269 ✈ 24-Jun-2013 ✈ KGSO - KSDF

Flight Track Log - Related Links

Times and Time Zones

All times are in EDT time to prevent confusion due to time zone crossing. See the UPS1269 flight status page for this flight to view local times or setup timezone preferences in your user account.

Time Position Orientation Groundspeed Altitude Reporting Facility
EDT Latitude Longitude Course Direction KTS MPH feet Rate Location/Type
11:32PM 36.1286 -80.0361 308° West 188 216 5,800  Level Atlanta Center
11:33PM 36.1794 -80.1236 306° West 253 291 9,800 3,000 Climbing Atlanta Center
11:34PM 36.2322 -80.2086 308° West 282 325 11,800 2,040 Climbing Atlanta Center
11:35PM 36.2939 -80.3164 305° West 341 392 13,900 2,220 Climbing Atlanta Center
11:37PM 36.4550 -80.5874 296° West  Level FlightAware Approximate
11:38PM 36.5195 -80.6911 308° West  Level FlightAware Approximate
11:41PM 36.5410 -81.0510 305° West 465 535 26,300  Level FlightAware
11:42PM 36.5790 -81.1750 291° West 463 533 28,100 2,340 Climbing FlightAware
11:42PM 36.6016 -81.2498 291° West 458 527 29,200 1,980 Climbing FlightAware ADS-B
11:43PM 36.6430 -81.3850 291° West 457 526 31,000 1,860 Climbing FlightAware
11:43PM 36.6564 -81.4318 290° West 458 527 31,500 600 Climbing FlightAware ADS-B
11:45PM 36.7136 -81.6198 291° West 460 529 32,000 180 Climbing FlightAware ADS-B
11:45PM 36.7364 -81.6964 290° West 458 527 31,900 -120 Descending FlightAware ADS-B
11:46PM 36.7614 -81.7802 290° West 455 524 31,900  Level FlightAware ADS-B
11:46PM 36.7842 -81.8564 291° West 455 524 31,900  Level FlightAware ADS-B
11:47PM 36.8063 -81.9304 290° West 456 525 31,900  Level FlightAware ADS-B
11:47PM 36.8292 -82.0094 290° West 458 527 31,900  Level FlightAware ADS-B
11:48PM 36.8562 -82.1012 290° West 460 529 31,900 60 Level FlightAware ADS-B
11:49PM 36.8876 -82.2063 291° West 462 532 32,000 60 Climbing FlightAware ADS-B
11:49PM 36.9122 -82.2915 290° West 465 535 32,000  Level FlightAware ADS-B
11:50PM 36.9386 -82.3798 291° West 464 534 32,000  Level FlightAware ADS-B
11:50PM 36.9606 -82.4554 290° West 464 534 32,000 -120 Level FlightAware ADS-B
11:51PM 36.9856 -82.5435 290° West 465 535 31,900 -120 Descending FlightAware ADS-B
11:51PM 37.0080 -82.6192 290° West 466 536 31,900 60 Level FlightAware ADS-B
11:52PM 37.0312 -82.7003 290° West 465 535 32,000 60 Climbing FlightAware ADS-B
11:52PM 37.0533 -82.7761 290° West 464 534 32,000  Level FlightAware ADS-B
11:53PM 37.0751 -82.8518 290° West 463 533 32,000  Level FlightAware ADS-B
11:53PM 37.0968 -82.9274 290° West 461 531 32,000 -120 Level FlightAware ADS-B
11:54PM 37.1183 -83.0024 290° West 460 529 31,900 -120 Descending FlightAware ADS-B
11:54PM 37.1410 -83.0826 290° West 459 528 31,900  Level FlightAware ADS-B
11:55PM 37.1625 -83.1577 290° West 459 528 31,900  Level FlightAware ADS-B
11:55PM 37.1854 -83.2403 289° West 457 526 31,900 60 Level FlightAware ADS-B
11:56PM 37.2076 -83.3174 290° West 456 525 32,000  Climbing FlightAware ADS-B
11:57PM 37.2400 -83.4323 290° West 455 524 31,900 -480 Descending FlightAware ADS-B
11:57PM 37.2711 -83.5439 289° West 463 533 31,300 -1,680 Descending FlightAware ADS-B
11:58PM 37.2941 -83.6275 289° West 482 555 29,800 -3,600 Descending FlightAware ADS-B
11:58PM 37.3195 -83.7184 289° West 493 567 27,400 -3,420 Descending FlightAware ADS-B
11:59PM 37.3437 -83.8041 290° West 484 557 26,000 -2,700 Descending FlightAware ADS-B
12:00AM 37.3654 -83.8839 289° West 464 534 24,600 -3,240 Descending FlightAware ADS-B
12:00AM 37.3935 -83.9848 289° West 461 531 22,200 -3,420 Descending FlightAware ADS-B
12:01AM 37.4142 -84.0588 289° West 445 512 20,600 -2,940 Descending FlightAware ADS-B
12:01AM 37.4364 -84.1409 289° West 434 499 19,100 -1,980 Descending FlightAware ADS-B
12:03AM 37.4825 -84.3117 289° West 429 494 16,900 -2,040 Descending Indianapolis Center
12:04AM 37.5186 -84.4519 288° West 421 484 14,400 -2,700 Descending Indianapolis Center
12:05AM 37.5556 -84.5864 289° West 410 472 11,500 -2,100 Descending Indianapolis Center
12:06AM 37.5903 -84.7119 289° West 388 447 10,200 -840 Descending Indianapolis Center
12:07AM 37.6186 -84.8183 289° West 316 364 9,900 -1,200 Descending Indianapolis Center
12:08AM 37.6472 -84.9289 288° West 285 328 7,800 -1,740 Descending Indianapolis Center
12:09AM 37.6908 -85.0042 306° West 271 312 6,400 -720 Descending Indianapolis Center
12:14AM 37.8690 -85.4570 306° West 257 296 3,000 -480 Descending FlightAware
12:17AM 37.9390 -85.6260 298° West 195 224 2,800 -60 Descending FlightAware
12:17AM 37.9550 -85.6420 322° Northwest 188 216 2,900 120 Climbing FlightAware
12:18AM 37.9650 -85.6470 338° Northwest 189 217 2,900  Level FlightAware
12:18AM 37.9890 -85.6580 340° North 178 205 2,900  Level FlightAware
12:18AM 38.0050 -85.6670 336° Northwest 176 203 2,900  Level FlightAware
12:19AM 38.0290 -85.6780 340° North 175 201 2,900 -420 Level FlightAware
12:19AM 38.0520 -85.6850 347° North 179 206 2,500 -840 Descending FlightAware
12:20AM 38.0690 -85.6900 347° North 168 193 2,200 -780 Descending FlightAware
12:20AM 38.0920 -85.6990 343° North 141 162 1,800 -780 Descending FlightAware
12:21AM 38.1100 -85.7050 345° North 147 169 1,400 -780 Descending FlightAware
12:21AM 38.1290 -85.7110 346° North 148 170 1,100 -780 Descending FlightAware
12:22AM 38.1470 -85.7180 343° North 144 166 700 -780 Descending FlightAware
12:22AM 38.1660 -85.7240 346° North 136 157 400 -600 Descending FlightAware
12:23AM 38.1770 -85.7280 344° North 96 110 -1,200 Descending FlightAware
12:23AM 38.1830 -85.7300 345° North 30 35  Level FlightAware
12:23AM 38.1850 -85.7320 322° Northwest 30 35  Level FlightAware
12:26AM 38.1800 -85.7420 238° Southwest 22 25  Level FlightAware
12:26AM 38.1800 -85.7440 270° West 15 17  Level FlightAware
12:26AM 38.1790 -85.7430 142° Southeast 20 23  Level FlightAware
12:27AM 38.1740 -85.7420 171° South 17 20  Level FlightAware
12:28AM 38.1710 -85.7410 165° South 17 20  Level FlightAware
12:29AM 38.1690 -85.7400 159° South 19 22  Level FlightAware
12:29AM 38.1680 -85.7400 180° South 15 17  Level FlightAware
12:29AM 38.1660 -85.7390 159° South 17 20  Level FlightAware
12:30AM 38.1650 -85.7380 142° Southeast 28 32  Level FlightAware